createdAt,value
2018-12-16T00:02:16.249Z,33.20
2018-12-16T00:04:50.078Z,39.67
2018-12-16T00:07:20.449Z,36.40
2018-12-16T00:09:51.407Z,36.00
2018-12-16T00:12:22.469Z,38.87
2018-12-16T00:14:53.413Z,35.13
2018-12-16T00:17:24.382Z,27.47
2018-12-16T00:19:55.386Z,33.87
2018-12-16T00:22:29.867Z,36.00
2018-12-16T00:25:00.316Z,33.33
2018-12-16T00:27:31.215Z,27.37
2018-12-16T00:30:02.567Z,35.10
2018-12-16T00:32:33.499Z,29.13
2018-12-16T00:35:05.246Z,28.27
2018-12-16T00:37:36.589Z,27.87
2018-12-16T00:40:08.753Z,31.67
2018-12-16T00:42:39.767Z,28.97
2018-12-16T00:45:10.924Z,37.27
2018-12-16T00:47:41.864Z,25.07
2018-12-16T00:50:13.544Z,42.20
2018-12-16T00:52:44.569Z,37.83
2018-12-16T00:55:15.575Z,29.27
2018-12-16T00:57:46.625Z,30.37
2018-12-16T01:00:17.631Z,34.93
2018-12-16T01:02:48.558Z,28.50
2018-12-16T01:05:19.505Z,32.87
2018-12-16T01:07:50.602Z,25.80
2018-12-16T01:10:21.552Z,26.47
2018-12-16T01:12:52.578Z,26.03
2018-12-16T01:15:23.533Z,29.27
2018-12-16T01:17:54.659Z,28.80
2018-12-16T01:20:25.835Z,25.83
2018-12-16T01:22:56.831Z,28.67
2018-12-16T01:25:28.236Z,29.10
2018-12-16T01:27:59.151Z,31.00
2018-12-16T01:30:30.236Z,30.63
2018-12-16T01:33:01.346Z,25.37
2018-12-16T01:35:32.458Z,26.17
2018-12-16T01:38:03.405Z,25.07
2018-12-16T01:40:34.970Z,26.87
2018-12-16T01:43:06.101Z,24.53
2018-12-16T01:45:37.279Z,27.00
2018-12-16T01:48:08.289Z,31.03
2018-12-16T01:50:39.251Z,26.00
2018-12-16T01:53:10.170Z,23.67
2018-12-16T01:55:41.107Z,26.13
2018-12-16T01:58:12.052Z,24.80
2018-12-16T02:00:43.022Z,27.90
2018-12-16T02:03:14.073Z,26.43
2018-12-16T02:05:45.012Z,25.37
2018-12-16T02:08:15.998Z,27.53
2018-12-16T02:10:46.940Z,28.40
2018-12-16T02:13:18.123Z,27.67
2018-12-16T02:15:49.275Z,29.13
2018-12-16T02:18:20.209Z,25.80
2018-12-16T02:20:51.973Z,25.30
2018-12-16T02:23:23.152Z,28.57
2018-12-16T02:25:54.973Z,25.83
2018-12-16T02:28:26.169Z,35.80
2018-12-16T02:30:57.181Z,27.17
2018-12-16T02:33:28.138Z,28.20
2018-12-16T02:35:59.235Z,26.33
2018-12-16T02:38:30.198Z,32.07
2018-12-16T02:41:01.324Z,30.27
2018-12-16T02:43:32.401Z,29.77
2018-12-16T02:46:03.432Z,28.37
2018-12-16T02:48:34.423Z,25.23
2018-12-16T02:51:06.436Z,25.57
2018-12-16T02:53:40.926Z,26.07
2018-12-16T02:56:12.030Z,31.00
2018-12-16T02:58:43.183Z,31.53
2018-12-16T03:01:14.168Z,28.97
2018-12-16T03:03:45.086Z,29.70
2018-12-16T03:06:16.293Z,32.40
2018-12-16T03:08:47.262Z,29.30
2018-12-16T03:11:18.206Z,29.80
2018-12-16T03:13:49.181Z,28.97
2018-12-16T03:16:20.271Z,33.50
2018-12-16T03:18:51.274Z,31.90
2018-12-16T03:21:22.400Z,26.97
2018-12-16T03:23:53.341Z,30.00
2018-12-16T03:26:24.358Z,30.37
2018-12-16T03:28:55.428Z,30.70
2018-12-16T03:31:26.432Z,30.77
2018-12-16T03:33:57.629Z,31.20
2018-12-16T03:36:28.882Z,32.70
2018-12-16T03:39:00.026Z,34.63
2018-12-16T03:41:31.609Z,30.17
2018-12-16T03:44:03.393Z,34.87
2018-12-16T03:46:34.429Z,37.17
2018-12-16T03:49:05.648Z,30.57
2018-12-16T03:51:36.738Z,28.40
2018-12-16T03:54:08.605Z,34.20
2018-12-16T03:56:39.809Z,32.13
2018-12-16T03:59:17.966Z,26.70
2018-12-16T04:01:57.057Z,33.50
2018-12-16T04:04:28.334Z,36.33
2018-12-16T04:06:59.585Z,32.10
2018-12-16T04:09:30.509Z,29.87
2018-12-16T04:12:01.444Z,36.63
2018-12-16T04:14:32.481Z,35.83
2018-12-16T04:17:03.427Z,32.70
2018-12-16T04:19:34.514Z,35.43
2018-12-16T04:22:05.471Z,38.93
2018-12-16T04:24:36.447Z,35.03
2018-12-16T04:27:07.500Z,34.07
2018-12-16T04:29:38.419Z,34.87
2018-12-16T04:32:09.381Z,32.23
2018-12-16T04:34:40.300Z,37.30
2018-12-16T04:37:11.283Z,41.07
2018-12-16T04:39:42.204Z,37.73
2018-12-16T04:42:13.143Z,36.23
2018-12-16T04:44:44.090Z,38.30
2018-12-16T04:47:15.209Z,43.57
2018-12-16T04:49:46.440Z,36.47
2018-12-16T04:52:17.489Z,45.60
2018-12-16T04:54:48.398Z,39.40
2018-12-16T04:57:19.773Z,39.63
2018-12-16T04:59:50.716Z,46.07
2018-12-16T05:02:22.590Z,47.83
2018-12-16T05:04:53.585Z,42.70
2018-12-16T05:07:24.648Z,44.80
2018-12-16T05:10:04.524Z,51.03
2018-12-16T05:12:35.644Z,46.43
2018-12-16T05:15:06.696Z,48.60
2018-12-16T05:17:37.693Z,38.77
2018-12-16T05:20:09.132Z,50.50
2018-12-16T05:22:40.107Z,56.37
2018-12-16T05:25:11.177Z,54.17
2018-12-16T05:27:42.128Z,50.23
2018-12-16T05:30:13.332Z,43.93
2018-12-16T05:32:44.626Z,44.10
2018-12-16T05:35:15.606Z,48.77
2018-12-16T05:37:46.653Z,46.10
2018-12-16T05:40:17.600Z,53.30
2018-12-16T05:42:48.609Z,36.30
2018-12-16T05:45:19.744Z,44.03
2018-12-16T05:47:50.717Z,41.90
2018-12-16T05:50:22.602Z,42.73
2018-12-16T05:52:53.513Z,40.60
2018-12-16T05:55:25.252Z,49.57
2018-12-16T05:57:56.457Z,40.40
2018-12-16T06:00:27.412Z,44.33
2018-12-16T06:02:58.367Z,46.83
2018-12-16T06:05:29.485Z,47.07
2018-12-16T06:08:00.861Z,43.93
2018-12-16T06:10:31.981Z,46.73
2018-12-16T06:13:02.933Z,52.47
2018-12-16T06:15:33.880Z,47.90
2018-12-16T06:18:04.819Z,48.63
2018-12-16T06:20:35.721Z,47.03
2018-12-16T06:23:07.295Z,47.40
2018-12-16T06:25:38.865Z,45.73
2018-12-16T06:28:09.864Z,46.93
2018-12-16T06:30:42.323Z,44.17
2018-12-16T06:33:13.276Z,50.20
2018-12-16T06:35:44.328Z,42.17
2018-12-16T06:38:15.575Z,47.30
2018-12-16T06:40:46.552Z,42.60
2018-12-16T06:43:17.669Z,47.77
2018-12-16T06:45:48.834Z,36.97
2018-12-16T06:48:19.754Z,40.83
2018-12-16T06:50:50.819Z,41.33
2018-12-16T06:53:22.644Z,40.30
2018-12-16T06:55:53.749Z,34.67
2018-12-16T06:58:25.254Z,34.37
2018-12-16T07:00:56.493Z,48.77
2018-12-16T07:03:27.443Z,37.47
2018-12-16T07:05:58.544Z,39.40
2018-12-16T07:08:29.580Z,41.67
2018-12-16T07:11:00.647Z,38.63
2018-12-16T07:13:31.594Z,43.27
2018-12-16T07:16:02.541Z,32.37
2018-12-16T07:18:33.606Z,37.17
2018-12-16T07:21:04.559Z,33.67
2018-12-16T07:23:35.510Z,34.60
2018-12-16T07:26:06.550Z,34.73
2018-12-16T07:28:37.697Z,34.77
2018-12-16T07:31:08.666Z,39.77
2018-12-16T07:33:39.660Z,29.00
2018-12-16T07:36:10.581Z,35.50
2018-12-16T07:38:41.573Z,34.30
2018-12-16T07:41:12.502Z,29.80
2018-12-16T07:43:43.488Z,29.77
2018-12-16T07:46:14.451Z,38.70
2018-12-16T07:48:45.712Z,27.83
2018-12-16T07:51:17.005Z,33.60
2018-12-16T07:53:48.017Z,32.23
2018-12-16T07:56:18.958Z,27.97
2018-12-16T07:58:50.186Z,31.30
2018-12-16T08:01:21.382Z,33.73
2018-12-16T08:03:52.451Z,34.63
2018-12-16T08:06:23.420Z,32.03
2018-12-16T08:08:54.506Z,32.13
2018-12-16T08:11:25.632Z,31.13
2018-12-16T08:13:56.857Z,33.80
2018-12-16T08:16:27.937Z,31.50
2018-12-16T08:18:59.043Z,30.37
2018-12-16T08:21:30.023Z,31.17
2018-12-16T08:24:01.101Z,31.97
2018-12-16T08:26:32.097Z,25.80
2018-12-16T08:29:03.077Z,32.13
2018-12-16T08:31:33.981Z,37.30
2018-12-16T08:34:05.062Z,36.27
2018-12-16T08:36:36.024Z,33.87
2018-12-16T08:39:07.995Z,30.80
2018-12-16T08:41:39.080Z,31.23
2018-12-16T08:44:10.449Z,35.97
2018-12-16T08:46:41.459Z,37.57
2018-12-16T08:49:14.062Z,27.33
2018-12-16T08:51:45.626Z,29.73
2018-12-16T08:54:16.902Z,24.17
2018-12-16T08:56:48.169Z,29.43
2018-12-16T08:59:19.449Z,24.80
2018-12-16T09:01:50.412Z,30.27
2018-12-16T09:04:22.501Z,25.27
2018-12-16T09:06:53.805Z,27.27
2018-12-16T09:09:25.285Z,27.00
2018-12-16T09:11:56.315Z,35.03
2018-12-16T09:14:28.066Z,22.67
2018-12-16T09:17:00.010Z,21.73
2018-12-16T09:19:31.050Z,31.27
2018-12-16T09:22:02.212Z,27.93
2018-12-16T09:24:37.159Z,24.27
2018-12-16T09:27:06.238Z,24.93
2018-12-16T09:29:37.403Z,27.63
2018-12-16T09:32:08.392Z,20.77
2018-12-16T09:34:39.590Z,19.00
2018-12-16T09:37:10.541Z,20.87
2018-12-16T09:39:41.682Z,14.30
2018-12-16T09:42:12.774Z,20.90
2018-12-16T09:44:44.014Z,21.17
2018-12-16T09:47:15.019Z,17.20
2018-12-16T09:49:46.312Z,19.30
2018-12-16T09:52:17.218Z,28.87
2018-12-16T09:54:48.315Z,17.87
2018-12-16T09:57:19.338Z,25.27
2018-12-16T09:59:50.305Z,30.57
2018-12-16T10:02:21.494Z,23.57
2018-12-16T10:04:52.730Z,19.97
2018-12-16T10:07:23.685Z,18.10
2018-12-16T10:09:55.535Z,18.33
2018-12-16T10:12:29.118Z,19.47
2018-12-16T10:15:00.103Z,21.77
2018-12-16T10:17:31.104Z,20.13
2018-12-16T10:20:02.060Z,19.13
2018-12-16T10:22:33.099Z,20.10
2018-12-16T10:25:04.325Z,22.03
2018-12-16T10:27:35.257Z,25.17
2018-12-16T10:30:08.246Z,23.83
2018-12-16T10:32:40.348Z,25.67
2018-12-16T10:35:12.940Z,21.50
2018-12-16T10:37:46.007Z,23.80
2018-12-16T10:40:17.789Z,19.83
2018-12-16T10:42:49.466Z,22.87
2018-12-16T10:45:21.774Z,18.93
2018-12-16T10:47:54.139Z,20.70
2018-12-16T10:50:26.277Z,26.13
2018-12-16T10:52:57.253Z,29.83
2018-12-16T10:55:28.216Z,24.43
2018-12-16T10:57:59.279Z,21.07
2018-12-16T11:00:35.533Z,18.03
2018-12-16T11:03:06.485Z,29.13
2018-12-16T11:05:37.864Z,23.83
2018-12-16T11:08:08.826Z,24.33
2018-12-16T11:10:39.934Z,23.17
2018-12-16T11:13:11.194Z,24.43
2018-12-16T11:15:42.287Z,27.57
2018-12-16T11:18:14.584Z,24.17
2018-12-16T11:20:46.531Z,26.33
2018-12-16T11:23:17.669Z,20.33
2018-12-16T11:25:52.347Z,23.00
2018-12-16T11:28:24.349Z,22.27
2018-12-16T11:30:56.673Z,23.00
2018-12-16T11:33:28.548Z,22.10
2018-12-16T11:36:00.873Z,24.17
2018-12-16T11:38:31.958Z,27.53
2018-12-16T11:41:03.086Z,25.50
2018-12-16T11:43:34.184Z,32.87
2018-12-16T11:46:05.811Z,29.63
2018-12-16T11:48:36.879Z,27.67
2018-12-16T11:51:07.879Z,24.03
2018-12-16T11:53:39.040Z,33.93
2018-12-16T11:56:10.003Z,29.17
2018-12-16T11:58:41.437Z,29.07
2018-12-16T12:01:12.657Z,27.00
2018-12-16T12:03:43.673Z,29.00
2018-12-16T12:06:14.753Z,27.60
2018-12-16T12:08:45.687Z,32.33
2018-12-16T12:11:16.655Z,25.60
2018-12-16T12:13:47.769Z,30.23
2018-12-16T12:16:19.012Z,25.70
2018-12-16T12:19:01.160Z,23.97
2018-12-16T12:21:32.167Z,28.50
2018-12-16T12:24:03.423Z,25.90
2018-12-16T12:26:41.235Z,26.37
2018-12-16T12:29:12.325Z,21.20
2018-12-16T12:31:43.607Z,22.50
2018-12-16T12:34:14.542Z,25.17
2018-12-16T12:36:45.991Z,22.80
2018-12-16T12:39:17.054Z,25.57
2018-12-16T12:41:48.134Z,21.97
2018-12-16T12:44:19.142Z,33.67
2018-12-16T12:46:50.064Z,26.20
2018-12-16T12:49:21.032Z,31.42
2018-12-16T12:51:52.120Z,28.93
2018-12-16T12:54:23.089Z,22.80
2018-12-16T12:56:54.040Z,27.43
2018-12-16T12:59:25.164Z,29.53
2018-12-16T13:01:56.127Z,30.13
2018-12-16T13:04:27.106Z,32.83
2018-12-16T13:06:58.343Z,33.37
2018-12-16T13:09:29.301Z,31.87
2018-12-16T13:12:00.328Z,25.70
2018-12-16T13:14:31.641Z,33.93
2018-12-16T13:17:02.602Z,35.80
2018-12-16T13:19:34.357Z,33.10
2018-12-16T13:22:05.291Z,34.43
2018-12-16T13:24:43.151Z,33.23
2018-12-16T13:27:14.147Z,33.53
2018-12-16T13:29:45.233Z,32.77
2018-12-16T13:32:16.250Z,34.33
2018-12-16T13:34:47.496Z,42.23
2018-12-16T13:37:18.391Z,32.53
2018-12-16T13:39:49.340Z,32.83
2018-12-16T13:42:20.383Z,34.03
2018-12-16T13:44:51.431Z,29.80
2018-12-16T13:47:22.866Z,33.00
2018-12-16T13:49:54.016Z,32.63
2018-12-16T13:52:25.255Z,30.70
2018-12-16T13:54:56.343Z,30.37
2018-12-16T13:57:28.595Z,31.20
2018-12-16T14:00:00.299Z,31.00
2018-12-16T14:02:31.186Z,27.17
2018-12-16T14:05:02.463Z,21.73
2018-12-16T14:07:33.521Z,30.73
2018-12-16T14:10:05.127Z,28.87
2018-12-16T14:12:36.204Z,23.30
2018-12-16T14:15:07.363Z,21.27
2018-12-16T14:17:38.266Z,20.90
2018-12-16T14:20:10.477Z,25.53
2018-12-16T14:22:41.562Z,26.67
2018-12-16T14:25:12.499Z,23.77
2018-12-16T14:27:43.504Z,23.97
2018-12-16T14:30:14.782Z,30.47
2018-12-16T14:32:45.923Z,39.37
2018-12-16T14:35:17.170Z,35.27
2018-12-16T14:37:48.622Z,32.87
2018-12-16T14:40:20.161Z,27.00
2018-12-16T14:42:52.142Z,31.27
2018-12-16T14:45:23.131Z,33.37
2018-12-16T14:47:54.157Z,29.23
2018-12-16T14:50:25.205Z,35.23
2018-12-16T14:52:56.270Z,30.63
2018-12-16T14:55:27.521Z,26.80
2018-12-16T14:57:59.231Z,24.77
2018-12-16T15:00:30.394Z,26.00
2018-12-16T15:03:01.553Z,25.67
2018-12-16T15:05:32.694Z,30.43
2018-12-16T15:08:04.020Z,25.70
2018-12-16T15:10:35.041Z,30.20
2018-12-16T15:13:06.157Z,29.20
2018-12-16T15:15:37.684Z,25.70
2018-12-16T15:18:08.598Z,25.87
2018-12-16T15:20:39.933Z,25.03
2018-12-16T15:23:10.852Z,24.47
2018-12-16T15:25:41.794Z,25.10
2018-12-16T15:28:12.752Z,29.90
2018-12-16T15:30:43.798Z,22.77
2018-12-16T15:33:14.808Z,14.87
2018-12-16T15:35:45.891Z,20.10
2018-12-16T15:38:17.041Z,16.70
2018-12-16T15:40:48.172Z,19.53
2018-12-16T15:43:19.453Z,20.63
2018-12-16T15:45:50.659Z,24.00
2018-12-16T15:48:21.613Z,25.33
2018-12-16T15:50:52.939Z,27.13
2018-12-16T15:53:23.867Z,24.57
2018-12-16T15:55:54.771Z,25.20
2018-12-16T15:58:25.791Z,28.93
2018-12-16T16:00:57.337Z,25.07
2018-12-16T16:03:28.809Z,25.53
2018-12-16T16:06:00.288Z,25.73
2018-12-16T16:08:31.657Z,24.13
2018-12-16T16:11:02.942Z,26.33
2018-12-16T16:13:33.911Z,13.50
2018-12-16T16:16:05.853Z,14.10
2018-12-16T16:18:36.829Z,18.47
2018-12-16T16:21:07.873Z,19.90
2018-12-16T16:23:38.874Z,22.70
2018-12-16T16:26:16.056Z,19.83
2018-12-16T16:28:43.094Z,19.33
2018-12-16T16:31:14.084Z,23.90
2018-12-16T16:33:45.460Z,18.43
2018-12-16T16:36:16.610Z,24.07
2018-12-16T16:38:47.613Z,18.80
2018-12-16T16:41:18.567Z,17.23
2018-12-16T16:43:50.025Z,24.17
2018-12-16T16:46:21.736Z,28.50
2018-12-16T16:48:53.054Z,25.40
2018-12-16T16:51:24.229Z,20.57
2018-12-16T16:53:55.190Z,22.97
2018-12-16T16:56:26.304Z,23.20
2018-12-16T16:58:57.520Z,23.03
2018-12-16T17:01:28.586Z,23.93
2018-12-16T17:03:59.906Z,31.40
2018-12-16T17:06:30.996Z,28.80
2018-12-16T17:09:03.313Z,26.83
2018-12-16T17:11:35.610Z,56.23
2018-12-16T17:14:08.162Z,38.23
2018-12-16T17:16:40.341Z,10.53
2018-12-16T17:19:11.485Z,11.97
2018-12-16T17:21:43.611Z,12.70
2018-12-16T17:24:15.958Z,16.00
2018-12-16T17:26:48.232Z,14.63
2018-12-16T17:29:19.373Z,13.57
2018-12-16T17:31:50.366Z,11.77
2018-12-16T17:34:21.827Z,10.50
2018-12-16T17:36:52.835Z,11.43
2018-12-16T17:39:23.804Z,12.83
2018-12-16T17:41:54.784Z,9.00
2018-12-16T17:44:25.784Z,9.90
2018-12-16T17:46:56.894Z,12.83
2018-12-16T17:49:28.332Z,11.73
2018-12-16T17:51:59.260Z,13.33
2018-12-16T17:54:30.509Z,11.63
2018-12-16T17:57:01.535Z,8.03
2018-12-16T17:59:32.536Z,12.37
2018-12-16T18:02:03.757Z,12.63
2018-12-16T18:04:34.777Z,12.20
2018-12-16T18:07:06.153Z,13.60
2018-12-16T18:09:37.085Z,10.10
2018-12-16T18:12:08.267Z,12.93
2018-12-16T18:14:39.535Z,13.43
2018-12-16T18:17:10.972Z,13.97
2018-12-16T18:19:41.931Z,9.33
2018-12-16T18:22:14.137Z,12.73
2018-12-16T18:24:45.380Z,15.18
2018-12-16T18:27:16.731Z,14.97
2018-12-16T18:29:47.724Z,12.90
2018-12-16T18:32:18.815Z,14.53
2018-12-16T18:34:50.016Z,9.60
2018-12-16T18:37:21.090Z,11.08
2018-12-16T18:39:52.034Z,14.07
2018-12-16T18:42:23.376Z,16.47
2018-12-16T18:44:54.324Z,18.17
2018-12-16T18:47:28.428Z,23.03
2018-12-16T18:50:02.746Z,19.20
2018-12-16T18:52:33.950Z,19.80
2018-12-16T18:55:05.385Z,17.63
2018-12-16T18:57:36.325Z,16.03
2018-12-16T19:00:10.384Z,16.90
2018-12-16T19:02:41.563Z,17.80
2018-12-16T19:05:12.725Z,20.53
2018-12-16T19:07:43.655Z,17.77
2018-12-16T19:10:15.364Z,19.43
2018-12-16T19:12:46.437Z,19.27
2018-12-16T19:15:18.407Z,23.40
2018-12-16T19:17:49.454Z,28.20
2018-12-16T19:20:21.608Z,28.93
2018-12-16T19:22:53.225Z,23.27
2018-12-16T19:25:24.798Z,21.63
2018-12-16T19:27:55.866Z,30.13
2018-12-16T19:30:27.145Z,21.80
2018-12-16T19:32:58.398Z,28.63
2018-12-16T19:35:29.388Z,26.93
2018-12-16T19:38:03.114Z,30.13
2018-12-16T19:40:33.919Z,31.57
2018-12-16T19:43:04.938Z,37.10
2018-12-16T19:45:36.279Z,35.97
2018-12-16T19:48:07.532Z,32.33
2018-12-16T19:50:38.627Z,34.50
2018-12-16T19:53:12.992Z,41.00
2018-12-16T19:55:44.215Z,35.10
2018-12-16T19:58:15.448Z,40.23
2018-12-16T20:00:46.977Z,38.50
2018-12-16T20:03:17.947Z,52.23
2018-12-16T20:05:54.717Z,40.03
2018-12-16T20:08:26.488Z,42.73
2018-12-16T20:10:57.485Z,38.70
2018-12-16T20:13:29.220Z,40.13
2018-12-16T20:16:01.622Z,53.77
2018-12-16T20:18:32.898Z,44.07
2018-12-16T20:21:03.879Z,58.83
2018-12-16T20:23:34.823Z,45.07
2018-12-16T20:26:05.958Z,52.70
2018-12-16T20:28:37.018Z,47.20
2018-12-16T20:31:08.084Z,54.00
2018-12-16T20:33:39.265Z,53.33
2018-12-16T20:36:10.526Z,45.30
2018-12-16T20:38:41.743Z,52.97
2018-12-16T20:41:12.817Z,57.17
2018-12-16T20:43:44.124Z,46.50
2018-12-16T20:46:15.234Z,56.50
2018-12-16T20:48:46.536Z,42.13
2018-12-16T20:51:17.893Z,62.57
2018-12-16T20:53:49.004Z,62.13
2018-12-16T20:56:20.349Z,56.10
2018-12-16T20:58:52.395Z,55.03
2018-12-16T21:01:23.797Z,57.30
2018-12-16T21:03:57.993Z,55.67
2018-12-16T21:06:30.702Z,56.37
2018-12-16T21:09:01.990Z,53.77
2018-12-16T21:11:38.788Z,58.07
2018-12-16T21:14:15.275Z,45.33
2018-12-16T21:16:52.035Z,49.80
2018-12-16T21:19:23.730Z,47.90
2018-12-16T21:21:56.436Z,46.57
2018-12-16T21:24:28.232Z,57.80
2018-12-16T21:26:59.541Z,52.07
2018-12-16T21:29:30.547Z,61.83
2018-12-16T21:32:01.592Z,66.50
2018-12-16T21:34:33.066Z,54.93
2018-12-16T21:37:04.851Z,73.40
2018-12-16T21:39:35.763Z,60.50
2018-12-16T21:42:06.947Z,63.87
2018-12-16T21:44:38.599Z,59.57
2018-12-16T21:47:10.595Z,50.97
2018-12-16T21:49:43.027Z,59.30
2018-12-16T21:52:14.513Z,54.87
2018-12-16T21:54:45.919Z,57.77
2018-12-16T21:57:17.034Z,60.67
2018-12-16T21:59:48.835Z,60.20
2018-12-16T22:02:20.518Z,57.27
2018-12-16T22:04:51.921Z,53.93
2018-12-16T22:07:22.920Z,70.17
2018-12-16T22:09:53.910Z,66.90
2018-12-16T22:12:25.018Z,60.97
2018-12-16T22:14:56.210Z,59.83
2018-12-16T22:17:27.284Z,65.80
2018-12-16T22:19:58.320Z,61.20
2018-12-16T22:22:29.292Z,70.27
2018-12-16T22:25:00.300Z,64.43
2018-12-16T22:27:31.298Z,63.93
2018-12-16T22:30:02.703Z,47.07
2018-12-16T22:32:33.655Z,47.23
2018-12-16T22:35:04.918Z,49.93
2018-12-16T22:37:36.112Z,51.43
2018-12-16T22:40:07.826Z,50.50
2018-12-16T22:42:38.841Z,50.33
2018-12-16T22:45:09.970Z,53.53
2018-12-16T22:47:41.038Z,50.27
2018-12-16T22:50:11.998Z,59.73
2018-12-16T22:52:43.345Z,51.23
2018-12-16T22:55:15.135Z,50.10
2018-12-16T22:57:47.166Z,44.70
2018-12-16T23:00:18.519Z,54.30
2018-12-16T23:02:49.636Z,45.20
2018-12-16T23:05:21.411Z,47.80
2018-12-16T23:07:53.103Z,45.70
2018-12-16T23:10:24.396Z,44.43
2018-12-16T23:12:55.424Z,48.57
2018-12-16T23:15:26.594Z,43.83
2018-12-16T23:17:57.566Z,39.70
2018-12-16T23:20:29.463Z,36.30
2018-12-16T23:23:00.569Z,42.30
2018-12-16T23:25:31.767Z,37.60
2018-12-16T23:28:02.770Z,34.93
2018-12-16T23:30:33.730Z,32.90
2018-12-16T23:33:04.808Z,42.10
2018-12-16T23:35:35.904Z,27.67
2018-12-16T23:38:07.963Z,32.67
2018-12-16T23:40:39.336Z,32.27
2018-12-16T23:43:10.229Z,30.57
2018-12-16T23:45:41.217Z,41.23
2018-12-16T23:48:12.396Z,35.30
2018-12-16T23:50:43.347Z,31.10
2018-12-16T23:53:14.274Z,27.80
2018-12-16T23:55:45.339Z,27.27
2018-12-16T23:58:16.327Z,28.90
